Calumet — WDE3568 — position and weather

sailwx.info

Track history (hours):
 
Tides and Currents Weather Stations Pressure Air Temp Water Temp Dewpoint Dewpoint Depression Visibility Wind Speed Wind Dir Waves Ship Positions

Calumet

Owner: Grand River Navigation Company, Traverse City, MI. More information available from US FCC via Universal Licensing System and Coast Guard Vessel Documentation Center.

Last reported at 2017-Sep-20 18:00 UTC. Time now 2017-Sep-22 08:20 UTC.
Position N 41°42' W 082°18'.

Length 192 m; draft 21.5 m.

Type: Cargo ship. MMSI: 367132630.

Wind at 5 knots

Barometer 1019.2 mb
Air temperature 24.9 ° C
Visibility: greater than 5.4 NM

Date/timePositionNaut miles runAvg speedWind from/ knotsBaromVisibWave heightAir tempDewpointWater temp
2017-Sep-20 18:00N 41°42' W 082°18'15 0.8 1019.2 5.4 24.9
2017-Sep-19 23:00N 41°36' W 082°00'22 0.4 060 / 161016.5 21.6
2017-Sep-17 22:00N 41°48' W 082°24'96 7.4 090 / 71021.6 23.3
2017-Sep-17 09:00N 43°24' W 082°24'3612.1 190 / 101023.3 18.8
2017-Sep-17 06:00N 44°00' W 082°30'9212.0 170 / 111022.6 5.4 19.4
2017-Sep-16 22:20N 45°23' W 083°24'1 2.1
2017-Sep-16 22:00N 45°24' W 083°24'539.3 140 / 211019.9 20.5
2017-Sep-16 21:52N 45°26' W 083°30'411.7
2017-Sep-16 21:30N 45°28' W 083°36'611.7
2017-Sep-16 21:00N 45°30' W 083°43'611.7
2017-Sep-16 20:30N 45°33' W 083°51'811.6
2017-Sep-16 19:47N 45°36' W 084°02'911.7
2017-Sep-16 19:03N 45°40' W 084°13'14240.2
2017-Sep-16 19:00N 45°54' W 084°12'141578.1 160 / 121019.2 5.4 26.6
2017-Sep-16 18:59N 45°40' W 084°14'511.0
2017-Sep-16 18:31N 45°41' W 084°21'611.9
2017-Sep-16 18:00N 45°43' W 084°29'612.0
2017-Sep-16 17:30N 45°46' W 084°37'612.0
2017-Sep-16 17:00N 45°49' W 084°44'612.1
2017-Sep-16 16:30N 45°50' W 084°52'612.0
2017-Sep-16 16:00N 45°52' W 085°01'611.9
2017-Sep-16 15:30N 45°53' W 085°09'611.8
2017-Sep-16 15:00N 45°53' W 085°18'611.8
2017-Sep-16 14:29N 45°54' W 085°27'1411.5
2017-Sep-16 13:18N 45°55' W 085°46'311.4
2017-Sep-16 13:00N 45°56' W 085°51'2 4.5
2017-Sep-16 12:30N 45°58' W 085°52'0 0.5
2017-Sep-16 12:00N 45°58' W 085°52'0 0.0
2017-Sep-16 11:30N 45°58' W 085°52'0 0.0
2017-Sep-16 11:00N 45°58' W 085°52'0 0.0
2017-Sep-16 10:30N 45°58' W 085°52'0 0.1
2017-Sep-16 10:00N 45°58' W 085°52'0 0.0
2017-Sep-16 09:30N 45°58' W 085°52'0 0.0
2017-Sep-16 09:00N 45°58' W 085°52'0 0.1
2017-Sep-16 08:30N 45°58' W 085°52'0 0.0
2017-Sep-16 08:00N 45°58' W 085°52'0 0.0
2017-Sep-16 07:30N 45°58' W 085°52'0 0.0
2017-Sep-16 07:00N 45°58' W 085°52'0 0.0
2017-Sep-16 06:30N 45°58' W 085°52'0 0.1
2017-Sep-16 06:00N 45°58' W 085°52'0 0.0
2017-Sep-16 05:30N 45°58' W 085°52'0 0.0
2017-Sep-16 05:00N 45°58' W 085°52'0 0.0
2017-Sep-16 04:30N 45°58' W 085°52'0 0.0
2017-Sep-16 04:00N 45°58' W 085°52'0 0.7
2017-Sep-16 03:25N 45°58' W 085°53'1 2.6
2017-Sep-16 03:00N 45°57' W 085°52'4 8.3
2017-Sep-16 02:30N 45°53' W 085°54'712.5
2017-Sep-16 01:54N 45°47' W 086°00'612.5
2017-Sep-16 01:26N 45°43' W 086°07'512.6
2017-Sep-16 01:00N 45°40' W 086°14'3310.8
2017-Sep-15 22:00N 45°24' W 086°54'4912.4 190 / 221016.5 20.5
2017-Sep-15 18:00N 44°48' W 087°42'31 1.8 230 / 101016.2 5.4 25.5
2017-Sep-15 00:40N 45°15' W 087°20'511.6
2017-Sep-15 00:12N 45°18' W 087°13'511.5
2017-Sep-14 23:48N 45°21' W 087°08'2011.0
2017-Sep-14 22:00N 45°27' W 086°41'6390.4
2017-Sep-14 22:00N 45°24' W 086°48'1419.6 190 / 221013.2 18.3
2017-Sep-14 21:17N 45°31' W 086°31'411.4
2017-Sep-14 20:58N 45°33' W 086°27'1011.6
2017-Sep-14 20:09N 45°38' W 086°15'211.6
2017-Sep-14 19:59N 45°38' W 086°13'611.6
2017-Sep-14 19:30N 45°41' W 086°06'611.6
2017-Sep-14 19:00N 45°44' W 085°58'611.6
2017-Sep-14 18:31N 45°47' W 085°51'611.4
2017-Sep-14 18:00N 45°50' W 085°44'2160.7
2017-Sep-14 18:00N 45°48' W 085°42'611.8 220 / 131009.8 2.2 19.9
2017-Sep-14 17:30N 45°52' W 085°37'611.1
2017-Sep-14 17:00N 45°54' W 085°29'611.5
2017-Sep-14 16:30N 45°53' W 085°21'611.8
2017-Sep-14 16:00N 45°52' W 085°12'611.8
2017-Sep-14 15:31N 45°52' W 085°04'611.8
2017-Sep-14 15:00N 45°50' W 084°56'611.7
2017-Sep-14 14:30N 45°49' W 084°47'611.3
2017-Sep-14 14:01N 45°48' W 084°40'612.0
2017-Sep-14 13:30N 45°44' W 084°32'611.5
2017-Sep-14 13:00N 45°42' W 084°25'611.1
2017-Sep-14 12:30N 45°42' W 084°17'611.8
2017-Sep-14 12:00N 45°39' W 084°09'612.2
2017-Sep-14 11:30N 45°37' W 084°01'612.1
2017-Sep-14 11:00N 45°34' W 083°53'2220.4
2017-Sep-14 11:00N 45°36' W 083°54'715.0 240 / 81010.8 16.1
2017-Sep-14 10:30N 45°31' W 083°46'612.1
2017-Sep-14 10:00N 45°29' W 083°38'612.2
2017-Sep-14 09:30N 45°26' W 083°30'5 9.5
2017-Sep-14 09:00N 45°24' W 083°24'1596.5 190 / 41010.8 16.6
2017-Sep-14 08:59N 45°23' W 083°23'3511.7
2017-Sep-14 06:00N 44°54' W 082°54'9411.7 220 / 51010.8 5.4 17.2
2017-Sep-13 22:00N 43°24' W 082°18'91 7.6 090 / 41009.1 21.1
2017-Sep-13 10:00N 41°54' W 082°36'   110 / 91012.5 19.9
Track history (hours):
 
Tides and Currents Weather Stations Pressure Air Temp Water Temp Dewpoint Dewpoint Depression Visibility Wind Speed Wind Dir Waves Ship Positions

Calumet

Owner: Grand River Navigation Company, Traverse City, MI. More information available from US FCC via Universal Licensing System and Coast Guard Vessel Documentation Center.

Last reported at 2017-Sep-20 18:00 UTC. Time now 2017-Sep-22 08:20 UTC.
Position N 41°42' W 082°18'.

Length 192 m; draft 21.5 m.

Type: Cargo ship. MMSI: 367132630.

Wind at 5 knots

Barometer 1019.2 mb
Air temperature 24.9 ° C
Visibility: greater than 5.4 NM

Date/timePositionNaut miles runAvg speedWind from/ knotsBaromVisibWave heightAir tempDewpointWater temp
2017-Sep-20 18:00N 41°42' W 082°18'15 0.8 1019.2 5.4 24.9
2017-Sep-19 23:00N 41°36' W 082°00'22 0.4 060 / 161016.5 21.6
2017-Sep-17 22:00N 41°48' W 082°24'96 7.4 090 / 71021.6 23.3
2017-Sep-17 09:00N 43°24' W 082°24'3612.1 190 / 101023.3 18.8
2017-Sep-17 06:00N 44°00' W 082°30'9212.0 170 / 111022.6 5.4 19.4
2017-Sep-16 22:20N 45°23' W 083°24'1 2.1
2017-Sep-16 22:00N 45°24' W 083°24'539.3 140 / 211019.9 20.5
2017-Sep-16 21:52N 45°26' W 083°30'411.7
2017-Sep-16 21:30N 45°28' W 083°36'611.7
2017-Sep-16 21:00N 45°30' W 083°43'611.7
2017-Sep-16 20:30N 45°33' W 083°51'811.6
2017-Sep-16 19:47N 45°36' W 084°02'911.7
2017-Sep-16 19:03N 45°40' W 084°13'14240.2
2017-Sep-16 19:00N 45°54' W 084°12'141578.1 160 / 121019.2 5.4 26.6
2017-Sep-16 18:59N 45°40' W 084°14'511.0
2017-Sep-16 18:31N 45°41' W 084°21'611.9
2017-Sep-16 18:00N 45°43' W 084°29'612.0
2017-Sep-16 17:30N 45°46' W 084°37'612.0
2017-Sep-16 17:00N 45°49' W 084°44'612.1
2017-Sep-16 16:30N 45°50' W 084°52'612.0
2017-Sep-16 16:00N 45°52' W 085°01'611.9
2017-Sep-16 15:30N 45°53' W 085°09'611.8
2017-Sep-16 15:00N 45°53' W 085°18'611.8
2017-Sep-16 14:29N 45°54' W 085°27'1411.5
2017-Sep-16 13:18N 45°55' W 085°46'311.4
2017-Sep-16 13:00N 45°56' W 085°51'2 4.5
2017-Sep-16 12:30N 45°58' W 085°52'0 0.5
2017-Sep-16 12:00N 45°58' W 085°52'0 0.0
2017-Sep-16 11:30N 45°58' W 085°52'0 0.0
2017-Sep-16 11:00N 45°58' W 085°52'0 0.0
2017-Sep-16 10:30N 45°58' W 085°52'0 0.1
2017-Sep-16 10:00N 45°58' W 085°52'0 0.0
2017-Sep-16 09:30N 45°58' W 085°52'0 0.0
2017-Sep-16 09:00N 45°58' W 085°52'0 0.1
2017-Sep-16 08:30N 45°58' W 085°52'0 0.0
2017-Sep-16 08:00N 45°58' W 085°52'0 0.0
2017-Sep-16 07:30N 45°58' W 085°52'0 0.0
2017-Sep-16 07:00N 45°58' W 085°52'0 0.0
2017-Sep-16 06:30N 45°58' W 085°52'0 0.1
2017-Sep-16 06:00N 45°58' W 085°52'0 0.0
2017-Sep-16 05:30N 45°58' W 085°52'0 0.0
2017-Sep-16 05:00N 45°58' W 085°52'0 0.0
2017-Sep-16 04:30N 45°58' W 085°52'0 0.0
2017-Sep-16 04:00N 45°58' W 085°52'0 0.7
2017-Sep-16 03:25N 45°58' W 085°53'1 2.6
2017-Sep-16 03:00N 45°57' W 085°52'4 8.3
2017-Sep-16 02:30N 45°53' W 085°54'712.5
2017-Sep-16 01:54N 45°47' W 086°00'612.5
2017-Sep-16 01:26N 45°43' W 086°07'512.6
2017-Sep-16 01:00N 45°40' W 086°14'3310.8
2017-Sep-15 22:00N 45°24' W 086°54'4912.4 190 / 221016.5 20.5
2017-Sep-15 18:00N 44°48' W 087°42'31 1.8 230 / 101016.2 5.4 25.5
2017-Sep-15 00:40N 45°15' W 087°20'511.6
2017-Sep-15 00:12N 45°18' W 087°13'511.5
2017-Sep-14 23:48N 45°21' W 087°08'2011.0
2017-Sep-14 22:00N 45°27' W 086°41'6390.4
2017-Sep-14 22:00N 45°24' W 086°48'1419.6 190 / 221013.2 18.3
2017-Sep-14 21:17N 45°31' W 086°31'411.4
2017-Sep-14 20:58N 45°33' W 086°27'1011.6
2017-Sep-14 20:09N 45°38' W 086°15'211.6
2017-Sep-14 19:59N 45°38' W 086°13'611.6
2017-Sep-14 19:30N 45°41' W 086°06'611.6
2017-Sep-14 19:00N 45°44' W 085°58'611.6
2017-Sep-14 18:31N 45°47' W 085°51'611.4
2017-Sep-14 18:00N 45°50' W 085°44'2160.7
2017-Sep-14 18:00N 45°48' W 085°42'611.8 220 / 131009.8 2.2 19.9
2017-Sep-14 17:30N 45°52' W 085°37'611.1
2017-Sep-14 17:00N 45°54' W 085°29'611.5
2017-Sep-14 16:30N 45°53' W 085°21'611.8
2017-Sep-14 16:00N 45°52' W 085°12'611.8
2017-Sep-14 15:31N 45°52' W 085°04'611.8
2017-Sep-14 15:00N 45°50' W 084°56'611.7
2017-Sep-14 14:30N 45°49' W 084°47'611.3
2017-Sep-14 14:01N 45°48' W 084°40'612.0
2017-Sep-14 13:30N 45°44' W 084°32'611.5
2017-Sep-14 13:00N 45°42' W 084°25'611.1
2017-Sep-14 12:30N 45°42' W 084°17'611.8
2017-Sep-14 12:00N 45°39' W 084°09'612.2
2017-Sep-14 11:30N 45°37' W 084°01'612.1
2017-Sep-14 11:00N 45°34' W 083°53'2220.4
2017-Sep-14 11:00N 45°36' W 083°54'715.0 240 / 81010.8 16.1
2017-Sep-14 10:30N 45°31' W 083°46'612.1
2017-Sep-14 10:00N 45°29' W 083°38'612.2
2017-Sep-14 09:30N 45°26' W 083°30'5 9.5
2017-Sep-14 09:00N 45°24' W 083°24'1596.5 190 / 41010.8 16.6
2017-Sep-14 08:59N 45°23' W 083°23'3511.7
2017-Sep-14 06:00N 44°54' W 082°54'9411.7 220 / 51010.8 5.4 17.2
2017-Sep-13 22:00N 43°24' W 082°18'91 7.6 090 / 41009.1 21.1
2017-Sep-13 10:00N 41°54' W 082°36'   110 / 91012.5 19.9

Dump ship's entire track history